»·PEaware :: N4657 KSNA-KCRQ

N4657 :: KSNA-KCRQ

FLIGHT INFORMATION

Flight Status: Arrived
Operator: Privately registered:
United States
More flights under this callsign
Pilot: Daniel P. (20187)
Aircraft: PILATUS PC-12 EAGLE
(PC12)
More flights by this aircraft type
Origin: KSNA John Wayne-Orange Co
United States
Destination: KCRQ McClellan-Palomar
United States
More flights between these airports :: More routes between these airports
Route: +V25 PACIF V208 OCN
File this flight plan on PilotEdge
Remarks: I2 TEST
Altitude:
(Current/Filed)
7ft
Speed:
(Current/Filed)
180kts
Departed: 09-Sep-18 11:31 AM
Arrived: 09-Sep-18 12:02 PM
Distance/Time
Traveled:
44nm/0:31
Distance/Time
To Go:
Arrived

Flight Plot

Page will automatically refresh every two minutes.


Map Options




Map Legend


Flown Route
Filed Route
Departure Airport
Arrival Airport
Navaid (VOR, NDB)
Fix

Horizontal Profiles

Position Reports

Time Latitude Longitude Heading Altitude Ground
Speed
09-Sep-18 11:02 33.673577 -117.872603 295 60ft 0kts
09-Sep-18 11:03 33.673577 -117.872604 295 60ft 0kts
09-Sep-18 11:04 33.673577 -117.872604 295 60ft 0kts
09-Sep-18 11:05 33.673577 -117.872604 295 60ft 0kts
09-Sep-18 11:06 33.673577 -117.872604 295 60ft 0kts
09-Sep-18 11:07 33.673577 -117.872604 295 60ft 0kts
09-Sep-18 11:08 33.673577 -117.872604 295 60ft 0kts
09-Sep-18 11:09 33.673577 -117.872604 295 60ft 0kts
09-Sep-18 11:10 33.673577 -117.872604 295 60ft 0kts
09-Sep-18 11:11 33.673577 -117.872604 295 60ft 0kts
09-Sep-18 11:12 33.673577 -117.872604 295 60ft 0kts
09-Sep-18 11:13 33.673577 -117.872604 295 60ft 0kts
09-Sep-18 11:14 33.673577 -117.872604 295 60ft 0kts
09-Sep-18 11:15 33.673577 -117.872604 295 60ft 0kts
09-Sep-18 11:16 33.673577 -117.872604 295 60ft 0kts
09-Sep-18 11:17 33.673577 -117.872604 295 60ft 0kts
09-Sep-18 11:18 33.673577 -117.872604 295 60ft 0kts
09-Sep-18 11:19 33.673577 -117.872604 295 60ft 0kts
09-Sep-18 11:20 33.673577 -117.872604 295 60ft 0kts
09-Sep-18 11:21 33.673577 -117.872604 295 60ft 0kts
09-Sep-18 11:22 33.673577 -117.872604 295 60ft 0kts
09-Sep-18 11:23 33.673577 -117.872604 295 60ft 0kts
09-Sep-18 11:24 33.673577 -117.872604 295 60ft 0kts
09-Sep-18 11:25 33.673577 -117.872604 295 60ft 0kts
09-Sep-18 11:26 33.673577 -117.872604 295 60ft 0kts
09-Sep-18 11:27 33.673490 -117.872538 14 60ft 1kts
09-Sep-18 11:28 33.674446 -117.871120 28 60ft 10kts
09-Sep-18 11:29 33.678699 -117.868416 27 60ft 17kts
09-Sep-18 11:30 33.681205 -117.866441 115 60ft 1kts
09-Sep-18 11:31 33.681204 -117.866438 115 60ft 0kts
09-Sep-18 11:32 33.681171 -117.866361 118 60ft 3kts
09-Sep-18 11:33 33.668682 -117.873250 207 466ft 99kts
09-Sep-18 11:34 33.640627 -117.880782 186 1916ft 109kts
09-Sep-18 11:35 33.610615 -117.884518 186 3415ft 110kts
09-Sep-18 11:36 33.580215 -117.887906 186 4917ft 114kts
09-Sep-18 11:37 33.548344 -117.891027 186 6418ft 117kts
09-Sep-18 11:38 33.511930 -117.886547 171 6989ft 155kts
09-Sep-18 11:39 33.469992 -117.869716 153 6959ft 175kts
09-Sep-18 11:40 33.418702 -117.854922 171 6986ft 201kts
09-Sep-18 11:41 33.364712 -117.837198 139 6994ft 210kts
09-Sep-18 11:42 33.322354 -117.788527 139 6985ft 212kts
09-Sep-18 11:43 33.284908 -117.735948 103 6993ft 217kts
09-Sep-18 11:44 33.275311 -117.669660 100 6983ft 188kts
09-Sep-18 11:45 33.267152 -117.609858 100 6985ft 178kts
09-Sep-18 11:46 33.259202 -117.552089 100 6621ft 175kts
09-Sep-18 11:47 33.251537 -117.496514 100 5420ft 166kts
09-Sep-18 11:48 33.244150 -117.443010 101 4226ft 162kts
09-Sep-18 11:49 33.244669 -117.391640 90 3991ft 173kts
09-Sep-18 11:50 33.238155 -117.330812 94 3985ft 194kts
09-Sep-18 11:51 33.248195 -117.266912 74 3984ft 199kts
09-Sep-18 11:52 33.256928 -117.201565 84 3984ft 199kts
09-Sep-18 11:53 33.257676 -117.135772 94 3984ft 199kts
09-Sep-18 11:54 33.254925 -117.069739 93 3994ft 199kts
09-Sep-18 11:55 33.219741 -117.039298 180 4001ft 169kts
09-Sep-18 11:56 33.179016 -117.052315 220 4000ft 151kts
09-Sep-18 11:57 33.154443 -117.086206 271 3522ft 116kts
09-Sep-18 11:58 33.151958 -117.127249 266 3486ft 143kts
09-Sep-18 11:59 33.146307 -117.168601 258 3218ft 109kts
09-Sep-18 12:00 33.141997 -117.198574 258 1980ft 85kts
09-Sep-18 12:01 33.137060 -117.225665 256 1184ft 88kts
09-Sep-18 12:02 33.132693 -117.252547 257 703ft 78kts
09-Sep-18 12:03 33.128453 -117.278726 258 309ft 57kts
09-Sep-18 12:04 33.127478 -117.282632 220 312ft 0kts
09-Sep-18 12:05 33.127478 -117.282632 220 312ft 0kts
09-Sep-18 12:06 33.127478 -117.282632 220 312ft 0kts
09-Sep-18 12:07 33.127478 -117.282632 220 312ft 0kts
09-Sep-18 12:08 33.127406 -117.282679 198 312ft 4kts
09-Sep-18 12:09 33.127509 -117.279589 78 309ft 11kts
09-Sep-18 12:10 33.126680 -117.277401 169 309ft 5kts
09-Sep-18 12:11 33.126496 -117.277613 252 309ft 1kts
09-Sep-18 12:12 33.125821 -117.277853 104 309ft 9kts
09-Sep-18 12:13 33.126022 -117.277037 71 308ft 0kts
09-Sep-18 12:14 33.126022 -117.277037 71 308ft 0kts
09-Sep-18 12:15 33.126022 -117.277037 71 308ft 0kts
09-Sep-18 12:16 33.126022 -117.277037 71 308ft 0kts
09-Sep-18 12:17 33.126022 -117.277037 71 308ft 0kts

Navigation Log

Ident Type
Flight plan parsing failed, navigation log unavailable